Time;durP1;ratioP1;P1;durP2;ratioP2;P2;SDS_P1;SDS_P2;PMS_P1;PMS_P2;Temp;Humidity;BMP_temperature;BMP_pressure;BME280_temperature;BME280_humidity;BME280_pressure;Samples;Min_cycle;Max_cycle;Signal;HPM_P1;HPM_P2
2022/07/17 00:01:20;;;;;;;3.30;2.40;;;18.50;99.90;;;;;;5076483;28;20563;-72
2022/07/17 00:03:47;;;;;;;2.63;2.43;;;18.40;99.90;;;;;;5058339;28;20579;-71
2022/07/17 00:06:14;;;;;;;8.63;3.30;;;18.40;99.90;;;;;;5076340;28;20613;-71
2022/07/17 00:08:40;;;;;;;3.07;1.90;;;18.40;99.90;;;;;;5076435;28;20639;-73
2022/07/17 00:11:06;;;;;;;3.80;2.13;;;18.40;99.90;;;;;;5076064;28;20563;-73
2022/07/17 00:13:33;;;;;;;5.53;2.40;;;18.30;99.90;;;;;;5075985;28;20577;-73
2022/07/17 00:15:59;;;;;;;2.03;1.93;;;18.30;99.90;;;;;;5057268;28;20602;-73
2022/07/17 00:18:25;;;;;;;5.10;2.50;;;18.20;99.90;;;;;;5075944;28;20573;-73
2022/07/17 00:20:52;;;;;;;2.00;1.90;;;18.20;99.90;;;;;;5076461;28;20562;-73
2022/07/17 00:23:18;;;;;;;3.80;2.07;;;18.20;99.90;;;;;;5075502;28;20609;-73
2022/07/17 00:25:45;;;;;;;2.00;1.90;;;18.20;99.90;;;;;;5075960;28;20578;-72
2022/07/17 00:28:11;;;;;;;6.20;2.40;;;18.20;99.90;;;;;;5075796;28;20625;-72
2022/07/17 00:30:38;;;;;;;6.03;2.50;;;18.20;99.90;;;;;;5057569;28;20606;-72
2022/07/17 00:33:04;;;;;;;4.90;2.33;;;18.20;99.90;;;;;;5075031;28;20610;-72
2022/07/17 00:35:30;;;;;;;8.60;2.43;;;18.20;99.90;;;;;;5075849;28;21083;-72
2022/07/17 00:37:57;;;;;;;3.57;2.50;;;18.20;99.90;;;;;;5075878;28;20644;-72
2022/07/17 00:40:24;;;;;;;5.93;2.20;;;18.10;99.90;;;;;;5073940;28;21246;-73
2022/07/17 00:42:51;;;;;;;7.07;2.30;;;18.00;99.90;;;;;;5057953;28;20610;-72
2022/07/17 00:45:19;;;;;;;5.07;2.50;;;17.90;99.90;;;;;;5075998;28;20581;-73
2022/07/17 00:48:15;;;;;;;2.57;2.37;;;17.90;99.90;;;;;;5075953;28;20622;-73
2022/07/17 00:50:42;;;;;;;6.30;1.90;;;18.00;99.90;;;;;;5055007;28;20993;-73
2022/07/17 00:53:10;;;;;;;2.70;1.90;;;17.90;99.90;;;;;;5074167;28;20671;-71
2022/07/17 00:55:39;;;;;;;2.93;2.00;;;17.90;99.90;;;;;;5074863;28;20621;-73
2022/07/17 00:58:07;;;;;;;4.23;2.20;;;17.90;99.90;;;;;;5075720;28;20566;-71
2022/07/17 01:00:33;;;;;;;4.77;2.97;;;17.80;99.90;;;;;;5075063;28;20610;-71
2022/07/17 01:03:00;;;;;;;3.73;2.07;;;17.80;99.90;;;;;;5075258;28;20574;-72
2022/07/17 01:05:27;;;;;;;6.53;2.30;;;17.80;99.90;;;;;;5075083;28;20610;-72
2022/07/17 01:07:53;;;;;;;5.43;2.27;;;17.80;99.90;;;;;;5075507;28;20646;-73
2022/07/17 01:10:20;;;;;;;3.70;2.70;;;17.80;99.90;;;;;;5075257;28;20981;-73
2022/07/17 01:12:47;;;;;;;4.10;2.43;;;17.70;99.90;;;;;;5075224;28;21207;-73
2022/07/17 01:15:15;;;;;;;7.23;2.10;;;17.70;99.90;;;;;;5057766;28;20631;-73
2022/07/17 01:17:42;;;;;;;2.40;2.23;;;17.70;99.90;;;;;;5075114;28;20582;-72
2022/07/17 01:20:10;;;;;;;4.30;2.40;;;17.60;99.90;;;;;;5056962;28;20737;-72
2022/07/17 01:22:46;;;;;;;4.50;2.33;;;17.60;99.90;;;;;;5057564;28;20575;-72
2022/07/17 01:25:14;;;;;;;2.60;2.43;;;17.60;99.90;;;;;;5056706;28;20630;-72
2022/07/17 01:27:41;;;;;;;6.13;2.83;;;17.60;99.90;;;;;;5074711;28;20622;-72
2022/07/17 01:30:09;;;;;;;2.53;2.33;;;17.60;99.90;;;;;;5075008;28;20575;-73
2022/07/17 01:32:37;;;;;;;2.30;1.97;;;17.50;99.90;;;;;;5074091;28;20615;-72
2022/07/17 01:35:05;;;;;;;3.60;2.33;;;17.50;99.90;;;;;;5057473;28;20632;-72
2022/07/17 01:37:31;;;;;;;3.17;2.27;;;17.50;99.90;;;;;;5074562;28;20976;-72
2022/07/17 01:39:58;;;;;;;2.40;2.20;;;17.50;99.90;;;;;;5074578;28;20650;-72
2022/07/17 01:42:27;;;;;;;6.10;2.20;;;17.50;99.90;;;;;;5075199;28;20590;-71
2022/07/17 01:44:55;;;;;;;2.20;2.10;;;17.40;99.90;;;;;;5074953;28;20605;-72
2022/07/17 01:47:22;;;;;;;2.90;2.10;;;17.30;99.90;;;;;;5074998;28;20578;-72
2022/07/17 01:49:54;;;;;;;2.40;2.23;;;17.20;99.90;;;;;;5074554;28;20629;-72
2022/07/17 01:52:23;;;;;;;2.43;2.20;;;17.20;99.90;;;;;;5056345;28;20626;-73
2022/07/17 01:54:50;;;;;;;3.83;2.20;;;17.10;99.90;;;;;;5074509;28;20628;-73
2022/07/17 01:57:17;;;;;;;2.33;2.17;;;17.10;99.90;;;;;;5074408;28;21102;-73
2022/07/17 01:59:43;;;;;;;3.53;2.17;;;17.10;99.90;;;;;;5074497;28;20610;-73
2022/07/17 02:02:11;;;;;;;4.33;1.80;;;17.10;99.90;;;;;;5056768;28;20624;-73
2022/07/17 02:04:41;;;;;;;2.77;2.57;;;17.00;99.90;;;;;;5073323;28;21173;-70
2022/07/17 02:07:08;;;;;;;12.97;2.73;;;17.00;99.90;;;;;;5073526;28;20621;-72
2022/07/17 02:09:36;;;;;;;2.47;2.20;;;17.00;99.90;;;;;;5074227;28;20634;-72
2022/07/17 02:12:02;;;;;;;2.50;1.90;;;17.00;99.90;;;;;;5073865;28;20626;-73
2022/07/17 02:14:29;;;;;;;4.33;2.20;;;17.00;99.90;;;;;;5074289;28;20898;-72
2022/07/17 02:16:55;;;;;;;5.53;2.33;;;16.90;99.90;;;;;;5074353;28;20571;-72
2022/07/17 02:19:22;;;;;;;3.87;2.60;;;16.90;99.90;;;;;;5074341;28;20586;-72
2022/07/17 02:21:48;;;;;;;3.37;3.07;;;16.80;99.90;;;;;;5074413;28;20575;-72
2022/07/17 02:24:15;;;;;;;6.33;3.40;;;16.70;99.90;;;;;;5073687;28;20647;-73
2022/07/17 02:26:41;;;;;;;2.40;2.20;;;16.60;99.90;;;;;;5055699;28;20618;-72
2022/07/17 02:29:08;;;;;;;4.17;1.80;;;16.60;99.90;;;;;;5073384;28;20622;-71
2022/07/17 02:31:34;;;;;;;4.77;2.30;;;16.60;99.90;;;;;;5073271;28;20621;-71
2022/07/17 02:34:01;;;;;;;2.37;2.10;;;16.60;99.90;;;;;;5074112;28;20582;-71
2022/07/17 02:36:27;;;;;;;1.83;1.73;;;16.60;99.90;;;;;;5055698;28;20571;-72
2022/07/17 02:38:54;;;;;;;2.70;2.50;;;16.50;99.90;;;;;;5074045;28;20614;-72
2022/07/17 02:41:20;;;;;;;2.63;2.20;;;16.40;99.90;;;;;;5053766;28;21122;-73
2022/07/17 02:43:47;;;;;;;3.43;2.50;;;16.40;99.90;;;;;;5053655;28;20990;-73
2022/07/17 02:46:13;;;;;;;2.27;2.10;;;16.40;99.90;;;;;;5053900;28;20571;-72
2022/07/17 02:48:41;;;;;;;3.53;2.37;;;16.30;99.90;;;;;;5053764;28;20627;-72
2022/07/17 02:51:08;;;;;;;3.30;2.50;;;16.30;99.90;;;;;;5053708;28;20607;-73
2022/07/17 02:53:35;;;;;;;2.63;2.30;;;16.30;99.90;;;;;;5054001;28;20580;-72
2022/07/17 02:56:01;;;;;;;4.70;2.40;;;16.20;99.90;;;;;;5053039;28;20622;-72
2022/07/17 02:58:28;;;;;;;3.80;2.67;;;16.10;99.90;;;;;;5053939;28;20584;-73
2022/07/17 03:00:54;;;;;;;3.40;2.20;;;16.10;99.90;;;;;;5053530;28;20600;-73
2022/07/17 03:03:21;;;;;;;2.43;2.13;;;16.10;99.90;;;;;;5053495;28;21122;-72
2022/07/17 03:05:47;;;;;;;4.47;2.70;;;16.10;99.90;;;;;;5053498;28;20966;-72
2022/07/17 03:08:14;;;;;;;6.70;2.30;;;16.00;99.90;;;;;;5052618;28;20646;-73
2022/07/17 03:10:40;;;;;;;3.47;2.13;;;16.00;99.90;;;;;;5052584;28;20627;-72
2022/07/17 03:13:07;;;;;;;3.43;2.10;;;15.90;99.90;;;;;;5053089;28;20583;-72
2022/07/17 03:15:33;;;;;;;2.93;2.00;;;15.90;99.90;;;;;;5052602;28;20572;-72
2022/07/17 03:18:00;;;;;;;3.17;2.30;;;16.00;99.90;;;;;;5034835;28;20623;-72
2022/07/17 03:20:26;;;;;;;2.60;2.30;;;16.00;99.90;;;;;;5052862;28;21157;-73
2022/07/17 03:22:53;;;;;;;2.23;2.03;;;16.00;99.90;;;;;;5052844;28;21136;-71
2022/07/17 03:25:19;;;;;;;2.30;2.07;;;16.00;99.90;;;;;;5053063;28;20630;-71
2022/07/17 03:27:46;;;;;;;3.40;2.30;;;16.00;99.90;;;;;;5052732;28;20957;-72
2022/07/17 03:30:12;;;;;;;3.53;1.90;;;15.90;99.90;;;;;;5052773;28;20579;-72
2022/07/17 03:32:39;;;;;;;2.23;2.10;;;15.90;99.90;;;;;;5053259;28;20583;-72
2022/07/17 03:35:07;;;;;;;5.63;3.57;;;15.90;99.90;;;;;;5052810;28;20626;-72
2022/07/17 03:37:33;;;;;;;2.87;2.63;;;15.80;99.90;;;;;;5052859;28;21155;-72
2022/07/17 03:39:59;;;;;;;4.70;1.90;;;15.90;99.90;;;;;;5043118;28;20692;-72
2022/07/17 03:42:26;;;;;;;3.43;2.23;;;15.90;99.90;;;;;;5070782;28;20614;-73
2022/07/17 03:44:52;;;;;;;2.30;2.10;;;15.90;99.90;;;;;;5072375;28;21028;-72
2022/07/17 03:47:19;;;;;;;3.10;2.20;;;15.80;99.90;;;;;;5054140;28;20619;-72
2022/07/17 03:49:45;;;;;;;3.30;2.00;;;15.80;99.90;;;;;;5072444;28;20625;-72
2022/07/17 03:52:12;;;;;;;3.00;2.70;;;15.80;99.90;;;;;;5072889;28;20574;-72
2022/07/17 03:54:38;;;;;;;3.77;2.40;;;15.90;99.90;;;;;;5072564;28;21136;-72
2022/07/17 03:57:05;;;;;;;4.10;2.10;;;15.80;99.90;;;;;;5072582;28;21210;-72
2022/07/17 03:59:31;;;;;;;7.10;3.03;;;15.80;99.90;;;;;;5072667;28;20715;-72
2022/07/17 04:01:57;;;;;;;5.43;2.10;;;15.70;99.90;;;;;;5072323;28;20583;-72
2022/07/17 04:04:24;;;;;;;3.00;2.13;;;15.80;99.90;;;;;;5072397;28;20594;-72
2022/07/17 04:06:50;;;;;;;2.10;2.00;;;15.80;99.90;;;;;;5072743;28;20600;-73
2022/07/17 04:09:17;;;;;;;2.10;2.00;;;15.80;99.90;;;;;;5072614;28;20635;-73
2022/07/17 04:11:43;;;;;;;2.80;1.90;;;15.80;99.90;;;;;;5072656;28;20952;-72
2022/07/17 04:14:09;;;;;;;5.43;2.80;;;15.80;99.90;;;;;;5072242;28;20690;-73
2022/07/17 04:16:36;;;;;;;4.00;2.17;;;15.80;99.90;;;;;;5072197;28;21147;-72
2022/07/17 04:19:03;;;;;;;2.43;2.10;;;15.80;99.90;;;;;;5072225;28;21250;-73
2022/07/17 04:21:29;;;;;;;7.47;3.07;;;15.70;99.90;;;;;;5071924;28;20621;-72
2022/07/17 04:23:56;;;;;;;2.53;2.07;;;15.70;99.90;;;;;;5071955;28;21020;-72
2022/07/17 04:26:22;;;;;;;2.70;2.37;;;15.70;99.90;;;;;;5072952;28;20586;-72
2022/07/17 04:28:48;;;;;;;2.20;1.97;;;15.70;99.90;;;;;;5076360;28;20951;-72
2022/07/17 04:31:15;;;;;;;2.70;2.37;;;15.70;99.90;;;;;;5075988;28;20575;-72
2022/07/17 04:33:41;;;;;;;7.17;3.03;;;15.70;99.90;;;;;;5075947;28;20593;-72
2022/07/17 04:36:08;;;;;;;5.00;2.33;;;15.80;99.90;;;;;;5075904;28;20585;-72
2022/07/17 04:38:35;;;;;;;3.10;2.10;;;15.80;99.90;;;;;;5075588;28;21126;-72
2022/07/17 04:41:01;;;;;;;5.37;3.30;;;15.80;99.90;;;;;;5057568;28;20646;-72
2022/07/17 04:43:27;;;;;;;3.40;1.97;;;15.80;99.90;;;;;;5075562;28;21246;-72
2022/07/17 04:45:54;;;;;;;5.30;1.90;;;15.90;99.90;;;;;;5076563;28;20632;-73
2022/07/17 04:48:20;;;;;;;6.67;2.13;;;15.90;99.90;;;;;;5075739;28;20577;-73
2022/07/17 04:50:47;;;;;;;8.07;1.93;;;15.90;99.90;;;;;;5076076;28;20594;-73
2022/07/17 04:53:13;;;;;;;6.10;2.23;;;16.00;99.90;;;;;;5075919;28;20574;-73
2022/07/17 04:55:40;;;;;;;8.23;2.10;;;16.10;99.90;;;;;;5075555;28;20926;-73
2022/07/17 04:58:06;;;;;;;5.23;2.20;;;16.10;99.90;;;;;;5075651;28;20610;-73
2022/07/17 05:00:33;;;;;;;4.27;2.60;;;16.10;99.90;;;;;;5074658;28;20658;-72
2022/07/17 05:03:00;;;;;;;1.73;1.60;;;16.20;99.90;;;;;;5075418;28;20647;-73
2022/07/17 05:05:26;;;;;;;2.00;1.90;;;16.40;99.90;;;;;;5073558;28;20622;-72
2022/07/17 05:07:53;;;;;;;13.57;2.80;;;16.40;99.90;;;;;;5057891;28;20602;-72
2022/07/17 05:10:19;;;;;;;2.70;2.07;;;16.40;99.90;;;;;;5075056;28;20586;-73
2022/07/17 05:12:46;;;;;;;96.50;57.50;;;16.50;99.90;;;;;;5074969;28;21088;-72
2022/07/17 05:15:12;;;;;;;23.60;21.07;;;16.60;99.90;;;;;;5040781;28;20630;-72
2022/07/17 05:17:39;;;;;;;43.53;37.47;;;16.60;99.90;;;;;;5075022;28;21183;-74
2022/07/17 05:20:06;;;;;;;31.67;28.47;;;16.80;99.90;;;;;;5075395;28;20626;-72
2022/07/17 05:22:33;;;;;;;20.90;18.87;;;16.80;99.90;;;;;;5075426;28;20929;-72
2022/07/17 05:24:59;;;;;;;13.47;12.13;;;16.80;99.90;;;;;;5074811;28;21213;-72
2022/07/17 05:27:27;;;;;;;18.70;16.97;;;16.90;99.90;;;;;;5075192;28;20581;-72
2022/07/17 05:29:53;;;;;;;14.27;13.03;;;17.10;99.90;;;;;;5074306;28;20676;-72
2022/07/17 05:32:20;;;;;;;7.77;7.03;;;17.20;99.90;;;;;;5075229;28;20617;-73
2022/07/17 05:34:46;;;;;;;25.17;22.60;;;17.20;99.90;;;;;;5074829;28;20573;-72
2022/07/17 05:37:12;;;;;;;60.67;54.90;;;17.30;99.90;;;;;;5074695;28;20634;-72
2022/07/17 05:39:39;;;;;;;3.80;2.07;;;17.30;99.90;;;;;;5052897;28;20658;-72
2022/07/17 05:42:06;;;;;;;3.90;2.27;;;17.40;99.90;;;;;;5036322;28;20611;-72
2022/07/17 05:44:32;;;;;;;3.70;1.60;;;17.50;99.90;;;;;;5053050;28;21157;-72
2022/07/17 05:46:59;;;;;;;2.93;2.23;;;17.60;99.90;;;;;;5054900;28;20579;-72
2022/07/17 05:49:26;;;;;;;4.47;2.03;;;17.60;99.90;;;;;;5053718;28;20630;-72
2022/07/17 05:51:52;;;;;;;4.73;2.00;;;17.70;99.90;;;;;;5055057;28;20644;-72
2022/07/17 05:54:19;;;;;;;4.40;2.30;;;17.70;99.90;;;;;;5054508;28;21132;-72
2022/07/17 05:56:45;;;;;;;4.53;2.10;;;17.80;99.90;;;;;;5036847;28;20621;-72
2022/07/17 05:59:11;;;;;;;3.10;2.10;;;18.00;99.90;;;;;;5019542;28;20712;-72
2022/07/17 06:01:38;;;;;;;6.10;2.40;;;18.10;99.90;;;;;;5054353;28;20575;-72
2022/07/17 06:04:04;;;;;;;3.57;2.30;;;18.00;99.90;;;;;;5053935;28;20623;-72
2022/07/17 06:06:31;;;;;;;7.33;2.27;;;18.00;99.90;;;;;;5054550;28;20568;-73
2022/07/17 06:08:57;;;;;;;3.77;1.90;;;18.20;99.90;;;;;;5054599;28;20569;-71
2022/07/17 06:11:24;;;;;;;3.80;2.20;;;18.40;99.90;;;;;;5054270;28;20573;-71
2022/07/17 06:13:50;;;;;;;4.40;2.43;;;18.40;99.90;;;;;;5035749;28;20980;-71
2022/07/17 06:16:17;;;;;;;4.63;2.00;;;18.50;99.90;;;;;;5052859;28;20630;-71
2022/07/17 06:18:43;;;;;;;9.70;2.10;;;18.60;99.90;;;;;;5054287;28;20571;-72
2022/07/17 06:21:10;;;;;;;5.53;2.40;;;18.60;99.90;;;;;;5054340;28;20614;-72
2022/07/17 06:23:36;;;;;;;4.57;2.00;;;18.80;99.90;;;;;;5054262;28;20631;-72
2022/07/17 06:26:03;;;;;;;7.27;2.17;;;18.80;99.90;;;;;;5053973;28;20579;-72
2022/07/17 06:28:29;;;;;;;3.63;2.10;;;18.90;99.90;;;;;;5035695;28;20611;-72
2022/07/17 06:30:55;;;;;;;7.00;2.37;;;19.10;99.90;;;;;;5054016;28;20572;-73
2022/07/17 06:33:22;;;;;;;4.80;2.53;;;19.30;99.90;;;;;;5053514;28;20635;-72
2022/07/17 06:35:48;;;;;;;2.20;2.00;;;19.50;99.90;;;;;;5054165;28;20591;-71
2022/07/17 06:38:15;;;;;;;2.30;2.10;;;19.60;99.90;;;;;;5055565;28;20591;-73
2022/07/17 06:40:42;;;;;;;5.93;2.33;;;19.70;99.90;;;;;;5067524;28;20827;-74
2022/07/17 06:43:08;;;;;;;2.90;1.97;;;19.60;99.90;;;;;;5073902;28;20610;-74
2022/07/17 06:45:35;;;;;;;3.40;2.40;;;19.70;99.90;;;;;;5073717;28;21168;-74
2022/07/17 06:48:02;;;;;;;2.40;2.27;;;19.60;99.90;;;;;;5072176;28;20739;-74
2022/07/17 06:50:28;;;;;;;2.43;1.87;;;19.60;99.90;;;;;;5073288;28;20574;-73
2022/07/17 06:52:55;;;;;;;5.20;2.20;;;19.70;99.90;;;;;;5073933;28;20574;-74
2022/07/17 06:55:21;;;;;;;4.07;2.00;;;19.90;99.90;;;;;;5074351;28;20971;-74
2022/07/17 06:57:48;;;;;;;2.50;2.03;;;20.00;99.90;;;;;;5074691;28;20575;-74
2022/07/17 07:00:15;;;;;;;6.77;2.60;;;20.20;99.90;;;;;;5056754;28;20680;-74
2022/07/17 07:02:41;;;;;;;3.30;2.30;;;20.30;99.90;;;;;;5072698;28;20627;-75
2022/07/17 07:05:08;;;;;;;3.00;2.70;;;20.50;99.90;;;;;;5074458;28;20579;-74
2022/07/17 07:07:34;;;;;;;2.80;2.53;;;20.50;99.90;;;;;;5073704;28;21112;-74
2022/07/17 07:10:01;;;;;;;5.13;2.10;;;20.30;99.90;;;;;;5074453;28;20585;-74
2022/07/17 07:12:28;;;;;;;2.47;2.37;;;20.50;99.90;;;;;;5074051;28;20586;-75
2022/07/17 07:14:54;;;;;;;2.27;2.10;;;20.50;99.90;;;;;;5073451;28;20645;-74
2022/07/17 07:17:21;;;;;;;2.43;2.20;;;20.70;99.90;;;;;;5073727;28;21025;-73
2022/07/17 07:19:47;;;;;;;2.73;2.27;;;20.80;99.90;;;;;;5074100;28;20630;-75
2022/07/17 07:22:14;;;;;;;3.90;2.60;;;20.90;99.90;;;;;;5074058;28;20571;-74
2022/07/17 07:24:40;;;;;;;3.57;2.20;;;21.10;99.90;;;;;;5074120;28;21007;-74
2022/07/17 07:27:07;;;;;;;4.90;2.00;;;21.00;99.90;;;;;;5074308;28;20606;-74
2022/07/17 07:29:33;;;;;;;2.80;2.20;;;20.90;99.90;;;;;;5074332;28;20652;-74
2022/07/17 07:32:00;;;;;;;3.47;2.23;;;21.00;99.90;;;;;;5075801;28;20943;-74
2022/07/17 07:34:26;;;;;;;5.20;2.57;;;21.30;99.90;;;;;;5075835;28;20574;-74
2022/07/17 07:36:53;;;;;;;8.10;2.53;;;21.40;99.90;;;;;;5076301;28;20683;-74
2022/07/17 07:39:19;;;;;;;3.13;2.93;;;21.60;99.90;;;;;;5075686;28;20669;-74
2022/07/17 07:41:46;;;;;;;4.20;2.30;;;21.60;99.90;;;;;;5075610;28;20620;-74
2022/07/17 07:44:12;;;;;;;3.50;2.50;;;21.70;99.90;;;;;;5079626;28;20646;-74
2022/07/17 07:46:39;;;;;;;4.77;2.60;;;22.00;99.90;;;;;;5074214;28;20968;-74
2022/07/17 07:49:06;;;;;;;3.00;1.80;;;21.90;99.90;;;;;;5056496;28;20566;-75
2022/07/17 07:51:32;;;;;;;3.60;2.20;;;21.60;99.90;;;;;;5055886;28;20651;-74
2022/07/17 07:53:58;;;;;;;7.23;3.00;;;21.80;99.90;;;;;;5075650;28;20578;-74
2022/07/17 07:56:25;;;;;;;3.67;2.30;;;22.10;99.90;;;;;;5077489;28;20610;-74
2022/07/17 07:58:52;;;;;;;3.97;2.20;;;22.50;99.90;;;;;;5077493;28;21207;-73
2022/07/17 08:01:18;;;;;;;4.50;2.70;;;22.60;99.90;;;;;;5077159;28;20633;-74
2022/07/17 08:03:45;;;;;;;14.23;2.93;;;22.40;99.90;;;;;;5079298;28;20586;-74
2022/07/17 08:06:11;;;;;;;2.30;2.10;;;22.50;99.90;;;;;;5079973;28;20720;-74
2022/07/17 08:08:37;;;;;;;6.07;2.40;;;22.40;99.90;;;;;;5080052;28;20571;-73
2022/07/17 08:11:04;;;;;;;4.87;2.50;;;22.50;99.90;;;;;;5079503;28;21020;-74
2022/07/17 08:13:31;;;;;;;2.63;2.30;;;22.70;99.90;;;;;;5080924;28;20673;-74
2022/07/17 08:15:58;;;;;;;4.60;2.33;;;22.70;99.90;;;;;;5081581;28;20582;-74
2022/07/17 08:18:26;;;;;;;3.50;2.80;;;22.90;99.90;;;;;;5064343;28;20727;-74
2022/07/17 08:20:55;;;;;;;2.63;2.43;;;22.90;99.90;;;;;;5067059;28;20622;-74
2022/07/17 08:23:22;;;;;;;5.93;2.03;;;23.10;99.90;;;;;;5084834;28;20578;-75
2022/07/17 08:25:49;;;;;;;4.40;2.90;;;23.20;99.90;;;;;;5085039;28;20582;-73
2022/07/17 08:28:15;;;;;;;6.17;2.97;;;23.20;99.90;;;;;;5086068;28;20605;-74
2022/07/17 08:30:42;;;;;;;3.13;2.43;;;23.10;99.90;;;;;;5085038;28;20604;-74
2022/07/17 08:33:09;;;;;;;2.70;2.50;;;23.20;99.90;;;;;;5084099;28;20919;-74
2022/07/17 08:35:36;;;;;;;4.20;2.50;;;23.20;99.90;;;;;;5082637;28;20705;-74
2022/07/17 08:38:04;;;;;;;6.30;2.77;;;23.40;99.90;;;;;;5083764;28;20654;-74
2022/07/17 08:40:33;;;;;;;3.43;2.73;;;23.50;99.90;;;;;;5082758;28;21036;-72
2022/07/17 08:43:02;;;;;;;2.57;2.37;;;23.40;99.90;;;;;;5082441;28;20610;-73
2022/07/17 08:45:29;;;;;;;5.33;2.20;;;23.70;99.90;;;;;;5083092;28;20693;-74
2022/07/17 08:47:56;;;;;;;5.80;2.43;;;23.70;99.90;;;;;;5083169;28;20631;-74
2022/07/17 08:50:37;;;;;;;3.80;2.17;;;23.60;99.90;;;;;;5065282;28;20625;-74
2022/07/17 08:53:04;;;;;;;2.30;2.10;;;23.60;99.90;;;;;;5083290;28;20655;-75
2022/07/17 08:55:31;;;;;;;5.53;2.37;;;23.60;99.90;;;;;;5082717;28;20586;-75
2022/07/17 08:57:58;;;;;;;2.00;1.90;;;23.50;99.90;;;;;;5081852;28;20960;-75
2022/07/17 09:00:25;;;;;;;2.77;2.57;;;23.70;99.90;;;;;;5082042;28;20640;-74
2022/07/17 09:03:05;;;;;;;4.00;2.07;;;24.00;99.90;;;;;;5082158;28;20610;-74
2022/07/17 09:05:34;;;;;;;4.17;2.60;;;24.10;99.90;;;;;;5082445;28;20570;-74
2022/07/17 09:08:01;;;;;;;4.50;2.20;;;24.10;99.90;;;;;;5081797;28;20646;-74
2022/07/17 09:10:39;;;;;;;4.73;2.57;;;24.40;99.90;;;;;;5081666;28;20570;-74
2022/07/17 09:13:28;;;;;;;2.70;2.50;;;24.40;99.90;;;;;;5081034;28;20581;-74
2022/07/17 09:16:06;;;;;;;2.97;2.77;;;24.50;99.90;;;;;;5081965;28;20602;-74
2022/07/17 09:18:46;;;;;;;7.97;3.13;;;24.60;99.90;;;;;;5082501;28;20724;-74
2022/07/17 09:21:24;;;;;;;3.17;2.90;;;24.70;99.90;;;;;;5081283;28;20625;-74
2022/07/17 09:24:01;;;;;;;8.07;2.40;;;24.80;99.90;;;;;;5080986;28;20734;-74
2022/07/17 09:26:28;;;;;;;4.70;2.60;;;24.90;99.90;;;;;;5078023;28;20697;-72
2022/07/17 09:28:55;;;;;;;9.20;2.70;;;25.20;99.90;;;;;;5080746;28;20697;-73
2022/07/17 09:31:31;;;;;;;2.50;2.30;;;25.10;99.90;;;;;;5081370;28;21127;-74
2022/07/17 09:33:58;;;;;;;4.03;2.20;;;24.80;99.90;;;;;;5063613;28;20618;-73
2022/07/17 09:36:25;;;;;;;4.67;3.07;;;24.80;99.90;;;;;;5079804;28;21068;-74
2022/07/17 09:38:57;;;;;;;4.90;2.30;;;25.10;99.90;;;;;;5080301;28;20605;-74
2022/07/17 09:41:25;;;;;;;3.40;2.40;;;25.30;99.90;;;;;;5080734;28;20704;-74
2022/07/17 09:43:52;;;;;;;5.13;3.20;;;25.60;99.90;;;;;;5077274;28;20567;-74
2022/07/17 09:46:26;;;;;;;4.23;3.03;;;26.00;99.90;;;;;;5076599;28;20615;-74
2022/07/17 09:48:55;;;;;;;3.47;2.63;;;25.80;99.90;;;;;;5079034;28;20567;-74
2022/07/17 09:51:33;;;;;;;3.43;2.20;;;25.80;99.90;;;;;;5077766;28;21135;-73
2022/07/17 09:54:02;;;;;;;2.93;2.70;;;25.80;99.90;;;;;;5080095;28;20685;-74
2022/07/17 09:56:31;;;;;;;2.57;2.47;;;25.70;99.90;;;;;;5080413;28;20676;-74
2022/07/17 09:59:05;;;;;;;2.63;2.53;;;25.70;99.90;;;;;;5080248;28;20694;-74
2022/07/17 10:01:35;;;;;;;4.23;2.30;;;25.80;99.90;;;;;;5078545;28;21085;-74
2022/07/17 10:04:03;;;;;;;2.97;2.63;;;25.80;99.90;;;;;;5079154;28;20622;-74
2022/07/17 10:06:30;;;;;;;2.90;2.70;;;26.00;99.90;;;;;;5079807;28;20702;-74
2022/07/17 10:08:57;;;;;;;2.53;2.30;;;25.80;99.90;;;;;;5083014;28;21148;-73
2022/07/17 10:11:26;;;;;;;6.87;3.23;;;25.90;99.90;;;;;;5082225;28;20661;-75
2022/07/17 10:13:55;;;;;;;2.93;2.80;;;26.20;99.90;;;;;;5081441;28;20728;-73
2022/07/17 10:16:30;;;;;;;2.70;2.50;;;26.40;99.90;;;;;;5080351;28;20662;-74
2022/07/17 10:18:58;;;;;;;2.70;2.60;;;26.60;99.90;;;;;;5076855;28;20570;-74
2022/07/17 10:21:27;;;;;;;2.20;2.10;;;26.80;99.90;;;;;;5080025;28;20684;-74
2022/07/17 10:23:53;;;;;;;3.17;2.73;;;26.60;99.90;;;;;;5059975;28;20638;-74
2022/07/17 10:26:31;;;;;;;2.63;2.50;;;26.60;99.90;;;;;;5060565;28;21007;-74
2022/07/17 10:28:58;;;;;;;6.80;2.63;;;26.70;99.90;;;;;;5078506;28;20566;-74
2022/07/17 10:31:26;;;;;;;2.70;2.60;;;27.00;99.90;;;;;;5058793;28;20575;-74
2022/07/17 10:33:58;;;;;;;3.47;2.23;;;27.00;99.90;;;;;;5076857;28;20625;-74
2022/07/17 10:36:41;;;;;;;2.60;2.33;;;27.10;99.90;;;;;;5060517;28;20680;-74
2022/07/17 10:39:12;;;;;;;4.90;2.60;;;27.30;99.90;;;;;;5079120;28;20650;-74
2022/07/17 10:41:43;;;;;;;2.63;2.53;;;27.40;99.90;;;;;;5077898;28;20661;-74
2022/07/17 10:44:09;;;;;;;2.43;2.33;;;26.70;99.90;;;;;;5081627;28;20579;-74
2022/07/17 10:46:36;;;;;;;4.60;2.80;;;26.20;99.90;;;;;;5081213;28;20614;-74
2022/07/17 10:49:03;;;;;;;2.77;2.57;;;26.40;99.90;;;;;;5063345;28;21222;-74
2022/07/17 10:51:31;;;;;;;3.13;2.83;;;26.60;99.90;;;;;;5078839;28;20644;-74
2022/07/17 10:53:59;;;;;;;3.10;2.67;;;26.80;99.90;;;;;;5076588;28;20622;-74
2022/07/17 10:56:26;;;;;;;2.87;2.70;;;27.20;99.90;;;;;;5077371;28;20582;-74
2022/07/17 10:59:00;;;;;;;3.90;2.70;;;27.30;99.90;;;;;;5077190;28;20626;-74
2022/07/17 11:01:26;;;;;;;4.10;2.40;;;27.50;99.90;;;;;;5077423;28;20653;-74
2022/07/17 11:03:56;;;;;;;2.63;2.43;;;27.90;99.90;;;;;;5076716;28;20571;-72
2022/07/17 11:06:27;;;;;;;2.83;2.73;;;27.90;99.90;;;;;;5076386;28;20594;-73
2022/07/17 11:08:57;;;;;;;2.80;2.60;;;27.60;99.90;;;;;;5081127;28;20646;-73
2022/07/17 11:11:34;;;;;;;2.90;2.70;;;26.90;99.90;;;;;;5080391;28;20976;-73
2022/07/17 11:14:15;;;;;;;2.77;2.57;;;27.40;99.90;;;;;;5078050;28;20739;-73
2022/07/17 11:17:02;;;;;;;2.60;2.50;;;27.80;99.90;;;;;;5077359;28;20618;-73
2022/07/17 11:19:42;;;;;;;3.93;2.60;;;27.60;99.90;;;;;;5080248;28;20582;-73
2022/07/17 11:22:11;;;;;;;2.93;2.67;;;27.80;99.90;;;;;;5071618;28;20669;-73
2022/07/17 11:24:38;;;;;;;2.60;2.50;;;27.90;99.90;;;;;;5079082;28;20729;-73
2022/07/17 11:27:05;;;;;;;4.00;3.10;;;28.20;99.90;;;;;;5078073;28;20614;-73
2022/07/17 11:29:41;;;;;;;3.40;3.10;;;28.30;99.90;;;;;;5074343;28;20614;-73
2022/07/17 11:32:07;;;;;;;3.20;3.03;;;29.40;99.90;;;;;;5074094;28;20630;-73
2022/07/17 11:34:34;;;;;;;3.50;3.20;;;29.80;99.90;;;;;;5073507;28;20594;-73
2022/07/17 11:37:04;;;;;;;3.60;3.50;;;29.70;99.90;;;;;;5078511;28;20582;-74
2022/07/17 11:39:41;;;;;;;3.73;3.00;;;30.40;99.90;;;;;;5080132;28;20637;-74
2022/07/17 11:42:12;;;;;;;3.40;3.10;;;30.60;99.90;;;;;;5080600;28;21216;-74
2022/07/17 11:44:39;;;;;;;3.40;3.10;;;31.10;99.90;;;;;;5081504;28;20631;-74
2022/07/17 11:47:06;;;;;;;3.23;3.00;;;31.10;99.90;;;;;;5080444;28;20604;-74
2022/07/17 11:49:35;;;;;;;5.27;2.57;;;31.30;99.90;;;;;;5079798;28;20901;-74
2022/07/17 11:52:11;;;;;;;4.03;2.90;;;31.50;99.90;;;;;;5081467;28;21014;-74
2022/07/17 11:54:55;;;;;;;4.30;2.87;;;31.40;99.90;;;;;;5062890;28;20616;-74
2022/07/17 11:57:23;;;;;;;2.67;2.47;;;31.20;99.90;;;;;;5080814;28;20586;-74
2022/07/17 11:59:52;;;;;;;2.90;2.80;;;31.20;99.90;;;;;;5080299;28;20562;-74
2022/07/17 12:02:22;;;;;;;2.80;2.70;;;30.50;99.90;;;;;;5079093;28;20614;-74
2022/07/17 12:04:54;;;;;;;2.87;2.73;;;31.00;99.90;;;;;;5080165;28;20614;-74
2022/07/17 12:07:21;;;;;;;2.70;2.60;;;30.60;99.90;;;;;;5080299;28;20914;-74
2022/07/17 12:09:48;;;;;;;3.00;2.80;;;30.80;99.90;;;;;;5079966;28;20589;-72
2022/07/17 12:12:23;;;;;;;4.17;3.03;;;31.70;99.90;;;;;;5078992;28;20685;-74
2022/07/17 12:14:54;;;;;;;2.70;2.60;;;31.80;99.90;;;;;;5079655;28;20593;-73
2022/07/17 12:17:22;;;;;;;2.70;2.60;;;30.70;99.90;;;;;;5081495;28;20638;-74
2022/07/17 12:19:49;;;;;;;2.83;2.73;;;30.50;99.90;;;;;;5080696;28;20570;-73
2022/07/17 12:22:16;;;;;;;3.67;3.00;;;31.20;99.90;;;;;;5046312;28;20931;-73
2022/07/17 12:24:44;;;;;;;3.37;3.17;;;31.30;99.90;;;;;;5063276;28;20630;-73
2022/07/17 12:27:13;;;;;;;2.70;2.57;;;31.70;99.90;;;;;;5080035;28;20943;-74
2022/07/17 12:29:44;;;;;;;2.60;2.40;;;31.00;99.90;;;;;;5081067;28;21123;-74
2022/07/17 12:32:12;;;;;;;2.93;2.73;;;30.50;99.90;;;;;;5080076;28;20665;-74
2022/07/17 12:34:49;;;;;;;3.57;2.77;;;31.40;99.90;;;;;;5062567;28;20620;-74
2022/07/17 12:37:18;;;;;;;3.27;3.07;;;32.30;99.90;;;;;;5079669;28;21113;-74
2022/07/17 12:39:45;;;;;;;2.73;2.53;;;31.30;99.90;;;;;;5079363;28;20684;-74
2022/07/17 12:42:12;;;;;;;2.50;2.40;;;31.80;99.90;;;;;;5079864;28;20578;-74
2022/07/17 12:44:39;;;;;;;2.83;2.60;;;31.20;99.90;;;;;;5061767;28;21199;-73
2022/07/17 12:47:06;;;;;;;2.60;2.40;;;31.50;99.90;;;;;;5060846;28;20621;-73
2022/07/17 12:49:32;;;;;;;3.43;3.13;;;32.00;99.90;;;;;;5076607;28;20585;-73